createdAt,value
2022-11-22T00:00:01.572Z,977.26
2022-11-22T00:05:01.693Z,977.26
2022-11-22T00:10:01.541Z,977.26
2022-11-22T00:15:01.795Z,977.26
2022-11-22T00:20:02.142Z,977.32
2022-11-22T00:25:01.798Z,977.29
2022-11-22T00:30:01.296Z,977.34
2022-11-22T00:35:01.715Z,977.26
2022-11-22T00:40:01.828Z,977.16
2022-11-22T00:45:01.843Z,977.22
2022-11-22T00:50:01.971Z,977.28
2022-11-22T00:55:02.013Z,977.28
2022-11-22T01:00:02.196Z,977.39
2022-11-22T01:05:01.504Z,977.34
2022-11-22T01:10:01.882Z,977.29
2022-11-22T01:15:02.069Z,977.23
2022-11-22T01:20:01.741Z,977.51
2022-11-22T01:25:01.863Z,977.57
2022-11-22T01:30:02.339Z,977.6
2022-11-22T01:35:02.497Z,977.67
2022-11-22T01:40:01.870Z,977.67
2022-11-22T01:45:01.724Z,977.72
2022-11-22T01:50:02.383Z,977.65
2022-11-22T01:55:01.702Z,977.71
2022-11-22T02:00:02.752Z,977.74
2022-11-22T02:05:01.969Z,977.89
2022-11-22T02:10:02.443Z,978.02
2022-11-22T02:15:01.569Z,978.04
2022-11-22T02:20:02.612Z,978.07
2022-11-22T02:25:01.569Z,978.14
2022-11-22T02:30:01.909Z,978.17
2022-11-22T02:35:02.192Z,978.2
2022-11-22T02:40:02.347Z,978.18
2022-11-22T02:45:01.645Z,978.21
2022-11-22T02:50:01.538Z,978.21
2022-11-22T02:55:02.063Z,978.03
2022-11-22T03:00:02.267Z,978.09
2022-11-22T03:05:02.687Z,978.21
2022-11-22T03:10:02.454Z,978.24
2022-11-22T03:15:01.672Z,978.42
2022-11-22T03:20:01.873Z,978.42
2022-11-22T03:25:01.684Z,978.42
2022-11-22T03:30:01.481Z,978.55
2022-11-22T03:35:01.768Z,978.5
2022-11-22T03:40:01.547Z,978.63
2022-11-22T03:45:02.052Z,978.72
2022-11-22T03:50:01.658Z,978.78
2022-11-22T03:55:01.754Z,978.82
2022-11-22T04:00:01.665Z,978.84
2022-11-22T04:05:01.773Z,978.83
2022-11-22T04:10:02.019Z,978.87
2022-11-22T04:15:02.171Z,978.88
2022-11-22T04:20:02.026Z,978.95
2022-11-22T04:25:02.105Z,978.97
2022-11-22T04:30:02.020Z,979.01
2022-11-22T04:35:02.146Z,978.97
2022-11-22T04:40:02.152Z,979.02
2022-11-22T04:45:01.440Z,978.96
2022-11-22T04:50:01.790Z,978.88
2022-11-22T04:55:02.054Z,978.86
2022-11-22T05:00:01.947Z,978.77
2022-11-22T05:05:01.964Z,978.84
2022-11-22T05:10:01.246Z,978.8
2022-11-22T05:15:01.612Z,978.83
2022-11-22T05:20:01.774Z,978.91
2022-11-22T05:25:01.596Z,979.01
2022-11-22T05:30:02.018Z,979.17
2022-11-22T05:35:01.452Z,979.28
2022-11-22T05:40:01.839Z,979.4
2022-11-22T05:45:02.266Z,979.5
2022-11-22T05:50:01.471Z,979.52
2022-11-22T05:55:01.759Z,979.48
2022-11-22T06:00:02.015Z,979.53
2022-11-22T06:05:01.881Z,979.46
2022-11-22T06:10:02.131Z,979.36
2022-11-22T06:15:02.160Z,979.41
2022-11-22T06:20:06.105Z,979.52
2022-11-22T06:25:01.940Z,979.63
2022-11-22T06:30:02.232Z,979.63
2022-11-22T06:35:02.398Z,979.74
2022-11-22T06:40:01.304Z,979.82
2022-11-22T06:45:01.720Z,979.88
2022-11-22T06:50:01.939Z,979.99
2022-11-22T06:55:07.663Z,980.11
2022-11-22T07:00:01.503Z,980.02
2022-11-22T07:05:24.573Z,980.04
2022-11-22T07:10:02.183Z,979.96
2022-11-22T07:15:01.404Z,980.15
2022-11-22T07:20:02.033Z,980.16
2022-11-22T07:25:01.892Z,980.07
2022-11-22T07:30:01.434Z,980.03
2022-11-22T07:35:02.054Z,979.99
2022-11-22T07:40:01.899Z,979.99
2022-11-22T07:45:01.635Z,980.01
2022-11-22T07:50:01.703Z,980.13
2022-11-22T07:55:01.578Z,980.16
2022-11-22T08:00:01.500Z,980.35
2022-11-22T08:05:02.051Z,980.33
2022-11-22T08:10:01.386Z,980.29
2022-11-22T08:15:01.744Z,980.3
2022-11-22T08:20:01.959Z,980.4
2022-11-22T08:25:01.985Z,980.45
2022-11-22T08:30:02.034Z,980.42
2022-11-22T08:35:01.904Z,980.52
2022-11-22T08:40:02.019Z,980.64
2022-11-22T08:45:02.038Z,980.56
2022-11-22T08:50:01.879Z,980.61
2022-11-22T08:55:01.260Z,980.62
2022-11-22T09:00:01.430Z,980.58
2022-11-22T09:05:01.488Z,980.56
2022-11-22T09:10:01.699Z,980.67
2022-11-22T09:15:01.715Z,980.62
2022-11-22T09:20:01.684Z,980.6
2022-11-22T09:25:01.810Z,980.62
2022-11-22T09:30:01.315Z,980.57
2022-11-22T09:35:01.573Z,980.67
2022-11-22T09:40:01.793Z,980.72
2022-11-22T09:45:01.294Z,980.79
2022-11-22T09:50:01.233Z,980.74
2022-11-22T09:55:01.487Z,980.73
2022-11-22T10:00:01.526Z,980.74
2022-11-22T10:05:02.010Z,980.66
2022-11-22T10:10:01.329Z,980.69
2022-11-22T10:15:01.836Z,980.67
2022-11-22T10:20:01.266Z,980.6
2022-11-22T10:25:01.481Z,980.47
2022-11-22T10:30:01.542Z,980.33
2022-11-22T10:35:01.702Z,980.27
2022-11-22T10:40:01.639Z,980.3
2022-11-22T10:45:01.572Z,980.28
2022-11-22T10:50:01.927Z,980.31
2022-11-22T10:55:01.884Z,980.2
2022-11-22T11:00:02.051Z,980.22
2022-11-22T11:05:01.983Z,980.12
2022-11-22T11:10:23.572Z,980.19
2022-11-22T11:15:01.505Z,980.18
2022-11-22T11:20:06.578Z,980.09
2022-11-22T11:25:01.837Z,980.13
2022-11-22T11:30:01.974Z,980.11
2022-11-22T11:35:01.596Z,980.07
2022-11-22T11:40:01.804Z,980
2022-11-22T11:45:01.819Z,979.94
2022-11-22T11:50:01.941Z,979.88
2022-11-22T11:55:01.334Z,979.8
2022-11-22T12:00:01.616Z,979.72
2022-11-22T12:05:01.892Z,979.65
2022-11-22T12:10:02.070Z,979.52
2022-11-22T12:15:11.159Z,979.74
2022-11-22T12:20:02.037Z,979.77
2022-11-22T12:25:31.453Z,979.72
2022-11-22T12:30:02.122Z,979.75
2022-11-22T12:35:02.117Z,979.81
2022-11-22T12:40:01.281Z,979.95
2022-11-22T12:45:01.812Z,980.03
2022-11-22T12:50:01.958Z,979.93
2022-11-22T12:55:02.134Z,979.87
2022-11-22T13:00:01.519Z,979.86
2022-11-22T13:05:01.870Z,979.83
2022-11-22T13:10:02.026Z,979.8
2022-11-22T13:15:01.602Z,979.81
2022-11-22T13:20:01.960Z,979.83
2022-11-22T13:25:01.364Z,979.88
2022-11-22T13:30:01.911Z,979.9
2022-11-22T13:35:01.355Z,979.83
2022-11-22T13:40:01.490Z,979.74
2022-11-22T13:45:01.505Z,979.63
2022-11-22T13:50:01.496Z,979.57
2022-11-22T13:55:01.698Z,979.56
2022-11-22T14:00:01.714Z,979.59
2022-11-22T14:05:01.922Z,979.59
2022-11-22T14:10:07.779Z,979.63
2022-11-22T14:15:01.615Z,979.63
2022-11-22T14:20:02.054Z,979.52
2022-11-22T14:25:01.403Z,979.48
2022-11-22T14:30:01.355Z,979.52
2022-11-22T14:35:01.619Z,979.57
2022-11-22T14:40:01.940Z,979.66
2022-11-22T14:45:01.821Z,979.63
2022-11-22T14:50:02.049Z,979.58
2022-11-22T14:55:02.060Z,979.68
2022-11-22T15:00:01.621Z,979.73
2022-11-22T15:09:23.702Z,979.79
2022-11-22T15:10:02.457Z,979.75
2022-11-22T15:57:13.375Z,979.81
2022-11-22T15:57:15.288Z,979.87
2022-11-22T15:57:15.876Z,979.93
2022-11-22T15:57:25.956Z,979.79
2022-11-22T15:57:32.910Z,979.78
2022-11-22T15:57:45.399Z,979.74
2022-11-22T15:57:56.442Z,979.93
2022-11-22T16:00:01.747Z,980.19
2022-11-22T16:06:06.579Z,980.18
2022-11-22T16:10:01.972Z,980.23
2022-11-22T16:15:02.022Z,980.27
2022-11-22T16:20:01.510Z,980.25
2022-11-22T16:25:06.136Z,980.28
2022-11-22T16:30:01.942Z,980.36
2022-11-22T16:35:28.551Z,980.52
2022-11-22T16:40:01.653Z,980.5
2022-11-22T16:45:04.320Z,980.57
2022-11-22T16:50:02.078Z,980.64
2022-11-22T16:55:01.568Z,980.62
2022-11-22T17:00:01.829Z,980.68
2022-11-22T17:05:02.074Z,980.77
2022-11-22T17:10:01.635Z,980.83
2022-11-22T17:15:01.359Z,980.84
2022-11-22T17:20:01.652Z,980.84
2022-11-22T17:25:01.934Z,980.93
2022-11-22T17:30:02.069Z,980.94
2022-11-22T17:35:02.013Z,980.99
2022-11-22T17:40:01.485Z,981.01
2022-11-22T17:45:02.066Z,981.04
2022-11-22T17:50:02.255Z,981.07
2022-11-22T17:55:05.717Z,981.05
2022-11-22T18:00:02.175Z,981.13
2022-11-22T18:05:02.050Z,981.13
2022-11-22T18:10:02.210Z,981.2
2022-11-22T18:15:02.010Z,981.3
2022-11-22T18:20:01.267Z,981.33
2022-11-22T18:25:01.706Z,981.38
2022-11-22T18:30:01.771Z,981.4
2022-11-22T18:35:01.393Z,981.41
2022-11-22T18:40:01.876Z,981.42
2022-11-22T18:45:02.118Z,981.43
2022-11-22T18:50:01.913Z,981.46
2022-11-22T18:55:02.014Z,981.49
2022-11-22T19:00:01.823Z,981.51
2022-11-22T19:05:02.087Z,981.55
2022-11-22T19:10:01.960Z,981.59
2022-11-22T19:15:01.997Z,981.67
2022-11-22T19:20:01.963Z,981.7
2022-11-22T19:25:01.355Z,981.61
2022-11-22T19:30:01.969Z,981.62
2022-11-22T19:35:01.421Z,981.63
2022-11-22T19:40:01.321Z,981.58
2022-11-22T19:45:01.428Z,981.54
2022-11-22T19:50:01.587Z,981.54
2022-11-22T19:55:01.799Z,981.51
2022-11-22T20:00:01.893Z,981.53
2022-11-22T20:05:02.063Z,981.59
2022-11-22T20:10:01.939Z,981.68
2022-11-22T20:15:01.938Z,981.68
2022-11-22T20:20:01.928Z,981.74
2022-11-22T20:25:02.083Z,981.71
2022-11-22T20:30:02.153Z,981.75
2022-11-22T20:35:02.014Z,981.78
2022-11-22T20:40:01.313Z,981.84
2022-11-22T20:45:01.898Z,981.75
2022-11-22T20:50:01.729Z,981.84
2022-11-22T20:55:05.012Z,981.82
2022-11-22T21:00:01.857Z,981.8
2022-11-22T21:05:01.700Z,981.93
2022-11-22T21:10:01.925Z,981.85
2022-11-22T21:15:01.763Z,981.8
2022-11-22T21:20:01.812Z,981.85
2022-11-22T21:25:01.277Z,981.92
2022-11-22T21:30:01.644Z,981.95
2022-11-22T21:35:01.545Z,981.98
2022-11-22T21:40:01.591Z,982
2022-11-22T21:45:01.648Z,982.07
2022-11-22T21:50:03.316Z,982.04
2022-11-22T21:55:01.775Z,982.04
2022-11-22T22:00:01.373Z,982.1
2022-11-22T22:05:01.462Z,982.16
2022-11-22T22:10:01.640Z,982.16
2022-11-22T22:15:01.721Z,982.05
2022-11-22T22:20:01.623Z,982.08
2022-11-22T22:25:01.725Z,982.13
2022-11-22T22:30:01.516Z,982.24
2022-11-22T22:35:01.651Z,982.21
2022-11-22T22:40:01.684Z,982.26
2022-11-22T22:45:01.568Z,982.31
2022-11-22T22:50:01.606Z,982.22
2022-11-22T22:55:01.584Z,982.32
2022-11-22T23:00:01.757Z,982.36
2022-11-22T23:05:01.327Z,982.39
2022-11-22T23:10:01.642Z,982.36
2022-11-22T23:15:01.753Z,982.37
2022-11-22T23:20:01.757Z,982.32
2022-11-22T23:25:02.080Z,982.39
2022-11-22T23:30:01.492Z,982.41
2022-11-22T23:35:01.721Z,982.49
2022-11-22T23:40:01.721Z,982.55
2022-11-22T23:45:01.793Z,982.57
2022-11-22T23:50:01.824Z,982.52
2022-11-22T23:55:01.881Z,982.55
